sensor_id;sensor_type;location;lat;lon;timestamp;pressure;altitude;pressure_sealevel;temperature;humidity
44198;BME280;30157;55.512;37.764;2023-03-15T00:00:09;99401.34;;;2.40;58.78
44198;BME280;30157;55.512;37.764;2023-03-15T00:02:37;99455.97;;;2.80;58.75
44198;BME280;30157;55.512;37.764;2023-03-15T00:05:03;99379.88;;;2.34;58.61
44198;BME280;30157;55.512;37.764;2023-03-15T00:07:29;99367.69;;;2.24;59.00
44198;BME280;30157;55.512;37.764;2023-03-15T00:09:56;99336.56;;;2.06;59.27
44198;BME280;30157;55.512;37.764;2023-03-15T00:12:22;99427.25;;;2.54;59.61
44198;BME280;30157;55.512;37.764;2023-03-15T00:14:49;99445.44;;;2.66;59.67
44198;BME280;30157;55.512;37.764;2023-03-15T00:17:15;99430.75;;;2.59;59.93
44198;BME280;30157;55.512;37.764;2023-03-15T00:19:40;99442.56;;;2.52;60.38
44198;BME280;30157;55.512;37.764;2023-03-15T00:22:06;99459.09;;;2.66;60.33
44198;BME280;30157;55.512;37.764;2023-03-15T00:24:32;99449.59;;;2.61;60.48
44198;BME280;30157;55.512;37.764;2023-03-15T00:26:57;99344.91;;;1.97;60.57
44198;BME280;30157;55.512;37.764;2023-03-15T00:29:23;99415.78;;;2.38;60.63
44198;BME280;30157;55.512;37.764;2023-03-15T00:31:49;99468.53;;;2.69;60.80
44198;BME280;30157;55.512;37.764;2023-03-15T00:34:17;99357.88;;;2.05;61.21
44198;BME280;30157;55.512;37.764;2023-03-15T00:36:44;99431.16;;;2.38;61.52
44198;BME280;30157;55.512;37.764;2023-03-15T00:39:11;99340.56;;;1.93;61.74
44198;BME280;30157;55.512;37.764;2023-03-15T00:41:39;99440.72;;;2.46;61.89
44198;BME280;30157;55.512;37.764;2023-03-15T00:44:05;99343.00;;;1.88;61.93
44198;BME280;30157;55.512;37.764;2023-03-15T00:46:30;99189.38;;;1.06;62.04
44198;BME280;30157;55.512;37.764;2023-03-15T00:48:56;99334.28;;;1.80;62.35
44198;BME280;30157;55.512;37.764;2023-03-15T00:51:23;99394.03;;;2.18;62.58
44198;BME280;30157;55.512;37.764;2023-03-15T00:53:50;99440.06;;;2.55;62.67
44198;BME280;30157;55.512;37.764;2023-03-15T00:56:18;99462.34;;;2.58;62.57
44198;BME280;30157;55.512;37.764;2023-03-15T00:58:45;99436.25;;;2.36;62.73
44198;BME280;30157;55.512;37.764;2023-03-15T01:01:16;99439.91;;;2.47;62.65
44198;BME280;30157;55.512;37.764;2023-03-15T01:03:43;99378.25;;;2.00;62.89
44198;BME280;30157;55.512;37.764;2023-03-15T01:06:14;99467.50;;;2.59;62.87
44198;BME280;30157;55.512;37.764;2023-03-15T01:08:41;99437.84;;;2.31;63.27
44198;BME280;30157;55.512;37.764;2023-03-15T01:11:10;99448.13;;;2.32;63.50
44198;BME280;30157;55.512;37.764;2023-03-15T01:13:36;99461.31;;;2.49;63.65
44198;BME280;30157;55.512;37.764;2023-03-15T01:16:02;99450.03;;;2.41;63.52
44198;BME280;30157;55.512;37.764;2023-03-15T01:18:29;99463.88;;;2.49;63.66
44198;BME280;30157;55.512;37.764;2023-03-15T01:20:56;99425.97;;;2.34;63.65
44198;BME280;30157;55.512;37.764;2023-03-15T01:23:22;99451.81;;;2.44;64.00
44198;BME280;30157;55.512;37.764;2023-03-15T01:25:48;99456.09;;;2.46;63.97
44198;BME280;30157;55.512;37.764;2023-03-15T01:28:14;99460.41;;;2.47;63.95
44198;BME280;30157;55.512;37.764;2023-03-15T01:30:40;99353.19;;;1.85;63.93
44198;BME280;30157;55.512;37.764;2023-03-15T01:33:05;99394.72;;;2.11;64.09
44198;BME280;30157;55.512;37.764;2023-03-15T01:35:31;99463.84;;;2.48;64.10
44198;BME280;30157;55.512;37.764;2023-03-15T01:37:57;99324.75;;;1.73;64.14
44198;BME280;30157;55.512;37.764;2023-03-15T01:40:23;99449.34;;;2.50;64.06
44198;BME280;30157;55.512;37.764;2023-03-15T01:48:47;99437.75;;;2.26;64.83
44198;BME280;30157;55.512;37.764;2023-03-15T01:54:26;99456.78;;;2.38;64.86
44198;BME280;30157;55.512;37.764;2023-03-15T01:57:01;99359.09;;;1.82;64.66
44198;BME280;30157;55.512;37.764;2023-03-15T01:59:33;99417.88;;;2.16;65.13
44198;BME280;30157;55.512;37.764;2023-03-15T02:02:00;99443.91;;;2.34;64.74
44198;BME280;30157;55.512;37.764;2023-03-15T02:04:47;99450.03;;;2.41;64.78
44198;BME280;30157;55.512;37.764;2023-03-15T02:07:17;99360.16;;;1.92;64.55
44198;BME280;30157;55.512;37.764;2023-03-15T02:10:02;99479.47;;;2.60;64.43
44198;BME280;30157;55.512;37.764;2023-03-15T02:12:34;99401.06;;;2.29;64.26
44198;BME280;30157;55.512;37.764;2023-03-15T02:15:04;99457.44;;;2.68;64.37
44198;BME280;30157;55.512;37.764;2023-03-15T02:17:36;99411.53;;;2.38;64.22
44198;BME280;30157;55.512;37.764;2023-03-15T02:20:10;99489.78;;;2.63;64.27
44198;BME280;30157;55.512;37.764;2023-03-15T02:22:54;99434.00;;;2.51;64.12
44198;BME280;30157;55.512;37.764;2023-03-15T02:25:53;99460.72;;;2.61;64.49
44198;BME280;30157;55.512;37.764;2023-03-15T02:28:26;99261.84;;;1.43;64.15
44198;BME280;30157;55.512;37.764;2023-03-15T02:30:52;99461.75;;;2.69;64.21
44198;BME280;30157;55.512;37.764;2023-03-15T02:33:26;99474.47;;;2.66;63.88
44198;BME280;30157;55.512;37.764;2023-03-15T02:35:54;99465.13;;;2.68;64.26
44198;BME280;30157;55.512;37.764;2023-03-15T02:38:20;99459.84;;;2.61;64.00
44198;BME280;30157;55.512;37.764;2023-03-15T02:40:51;99440.03;;;2.52;64.06
44198;BME280;30157;55.512;37.764;2023-03-15T02:43:20;99219.69;;;1.25;63.71
44198;BME280;30157;55.512;37.764;2023-03-15T02:45:48;99420.34;;;2.51;63.98
44198;BME280;30157;55.512;37.764;2023-03-15T02:48:15;99455.72;;;2.69;64.11
44198;BME280;30157;55.512;37.764;2023-03-15T02:50:42;99471.13;;;2.71;64.03
44198;BME280;30157;55.512;37.764;2023-03-15T02:53:08;99412.19;;;2.29;64.31
44198;BME280;30157;55.512;37.764;2023-03-15T02:55:34;99446.19;;;2.62;64.31
44198;BME280;30157;55.512;37.764;2023-03-15T02:58:01;99472.75;;;2.65;64.43
44198;BME280;30157;55.512;37.764;2023-03-15T03:00:29;99360.50;;;2.06;63.91
44198;BME280;30157;55.512;37.764;2023-03-15T03:02:56;99362.03;;;1.99;63.89
44198;BME280;30157;55.512;37.764;2023-03-15T03:05:22;99347.38;;;1.92;63.95
44198;BME280;30157;55.512;37.764;2023-03-15T03:07:48;99460.94;;;2.72;63.91
44198;BME280;30157;55.512;37.764;2023-03-15T03:10:16;99453.97;;;2.66;63.89
44198;BME280;30157;55.512;37.764;2023-03-15T03:12:50;99457.09;;;2.53;63.83
44198;BME280;30157;55.512;37.764;2023-03-15T03:15:20;99441.50;;;2.42;64.43
44198;BME280;30157;55.512;37.764;2023-03-15T03:17:46;99355.03;;;1.92;64.27
44198;BME280;30157;55.512;37.764;2023-03-15T03:20:13;99487.09;;;2.57;64.25
44198;BME280;30157;55.512;37.764;2023-03-15T03:22:43;99456.94;;;2.45;64.28
44198;BME280;30157;55.512;37.764;2023-03-15T03:25:10;99448.28;;;2.40;64.31
44198;BME280;30157;55.512;37.764;2023-03-15T03:27:37;99402.25;;;2.04;64.79
44198;BME280;30157;55.512;37.764;2023-03-15T03:30:09;99484.22;;;2.43;64.85
44198;BME280;30157;55.512;37.764;2023-03-15T03:32:39;99410.59;;;1.96;65.02
44198;BME280;30157;55.512;37.764;2023-03-15T03:35:05;99485.81;;;2.38;65.11
44198;BME280;30157;55.512;37.764;2023-03-15T03:37:32;99478.00;;;2.32;65.01
44198;BME280;30157;55.512;37.764;2023-03-15T03:40:04;99369.78;;;1.64;64.83
44198;BME280;30157;55.512;37.764;2023-03-15T03:42:33;99497.75;;;2.38;64.89
44198;BME280;30157;55.512;37.764;2023-03-15T03:44:59;99483.13;;;2.32;65.18
44198;BME280;30157;55.512;37.764;2023-03-15T03:47:30;99450.22;;;2.12;65.09
44198;BME280;30157;55.512;37.764;2023-03-15T03:49:56;99413.03;;;1.90;64.53
44198;BME280;30157;55.512;37.764;2023-03-15T03:52:22;99494.38;;;2.39;64.69
44198;BME280;30157;55.512;37.764;2023-03-15T03:54:49;99490.06;;;2.38;64.70
44198;BME280;30157;55.512;37.764;2023-03-15T03:57:15;99458.94;;;2.21;64.36
44198;BME280;30157;55.512;37.764;2023-03-15T03:59:41;99478.06;;;2.35;64.70
44198;BME280;30157;55.512;37.764;2023-03-15T04:02:08;99414.66;;;1.88;64.51
44198;BME280;30157;55.512;37.764;2023-03-15T04:04:34;99378.50;;;1.73;64.43
44198;BME280;30157;55.512;37.764;2023-03-15T04:07:00;99489.13;;;2.34;64.63
44198;BME280;30157;55.512;37.764;2023-03-15T04:09:34;99493.41;;;2.33;64.42
44198;BME280;30157;55.512;37.764;2023-03-15T04:12:03;99474.50;;;2.28;64.44
44198;BME280;30157;55.512;37.764;2023-03-15T04:14:30;99501.16;;;2.38;64.36
44198;BME280;30157;55.512;37.764;2023-03-15T04:16:56;99502.09;;;2.40;64.16
44198;BME280;30157;55.512;37.764;2023-03-15T04:19:21;99479.59;;;2.27;64.14
44198;BME280;30157;55.512;37.764;2023-03-15T04:21:48;99494.38;;;2.39;64.39
44198;BME280;30157;55.512;37.764;2023-03-15T04:24:36;99487.22;;;2.25;64.42
44198;BME280;30157;55.512;37.764;2023-03-15T04:27:09;99473.44;;;2.20;63.65
44198;BME280;30157;55.512;37.764;2023-03-15T04:30:01;99503.03;;;2.44;63.83
44198;BME280;30157;55.512;37.764;2023-03-15T04:32:48;99392.38;;;1.84;63.32
44198;BME280;30157;55.512;37.764;2023-03-15T04:35:26;99495.50;;;2.51;63.21
44198;BME280;30157;55.512;37.764;2023-03-15T04:38:06;99508.44;;;2.56;62.97
44198;BME280;30157;55.512;37.764;2023-03-15T04:40:43;99526.56;;;2.65;62.98
44198;BME280;30157;55.512;37.764;2023-03-15T04:43:20;99493.13;;;2.59;62.25
44198;BME280;30157;55.512;37.764;2023-03-15T04:46:09;99509.72;;;2.77;61.61
44198;BME280;30157;55.512;37.764;2023-03-15T04:49:03;99531.41;;;2.91;61.79
44198;BME280;30157;55.512;37.764;2023-03-15T04:51:48;99522.75;;;2.86;61.61
44198;BME280;30157;55.512;37.764;2023-03-15T04:54:33;99293.56;;;1.51;61.41
44198;BME280;30157;55.512;37.764;2023-03-15T04:57:12;99529.00;;;3.42;60.20
44198;BME280;30157;55.512;37.764;2023-03-15T04:59:37;99530.13;;;3.56;59.52
44198;BME280;30157;55.512;37.764;2023-03-15T05:02:42;99505.00;;;3.85;58.51
44198;BME280;30157;55.512;37.764;2023-03-15T05:05:39;99414.56;;;4.05;56.57
44198;BME280;30157;55.512;37.764;2023-03-15T05:08:17;99517.41;;;4.66;57.07
44198;BME280;30157;55.512;37.764;2023-03-15T05:11:04;99493.56;;;4.20;57.33
44198;BME280;30157;55.512;37.764;2023-03-15T05:14:02;99530.38;;;4.74;56.17
44198;BME280;30157;55.512;37.764;2023-03-15T05:16:46;99493.75;;;4.31;56.92
44198;BME280;30157;55.512;37.764;2023-03-15T05:19:36;99506.22;;;4.64;55.65
44198;BME280;30157;55.512;37.764;2023-03-15T05:22:34;99494.94;;;4.53;55.16
44198;BME280;30157;55.512;37.764;2023-03-15T05:25:14;99478.13;;;4.18;56.14
44198;BME280;30157;55.512;37.764;2023-03-15T05:27:58;99510.06;;;4.34;56.05
44198;BME280;30157;55.512;37.764;2023-03-15T05:30:53;99542.75;;;3.91;57.75
44198;BME280;30157;55.512;37.764;2023-03-15T05:33:41;99553.81;;;3.87;58.30
44198;BME280;30157;55.512;37.764;2023-03-15T05:36:25;99553.53;;;4.20;57.56
44198;BME280;30157;55.512;37.764;2023-03-15T05:39:11;99558.66;;;4.19;57.44
44198;BME280;30157;55.512;37.764;2023-03-15T05:42:01;99546.09;;;3.87;58.07
44198;BME280;30157;55.512;37.764;2023-03-15T05:44:45;99536.09;;;3.55;58.46
44198;BME280;30157;55.512;37.764;2023-03-15T05:47:23;99565.66;;;3.80;58.74
44198;BME280;30157;55.512;37.764;2023-03-15T05:50:07;99552.22;;;3.95;58.27
44198;BME280;30157;55.512;37.764;2023-03-15T05:52:49;99566.50;;;3.79;58.72
44198;BME280;30157;55.512;37.764;2023-03-15T05:55:35;99537.53;;;3.86;58.39
44198;BME280;30157;55.512;37.764;2023-03-15T05:58:27;99555.41;;;3.82;58.45
44198;BME280;30157;55.512;37.764;2023-03-15T06:01:03;99473.53;;;3.04;59.29
44198;BME280;30157;55.512;37.764;2023-03-15T06:03:52;99579.28;;;3.76;59.01
44198;BME280;30157;55.512;37.764;2023-03-15T06:06:23;99596.19;;;3.65;59.59
44198;BME280;30157;55.512;37.764;2023-03-15T06:08:49;99581.44;;;3.55;59.45
44198;BME280;30157;55.512;37.764;2023-03-15T06:11:14;99501.31;;;3.25;59.37
44198;BME280;30157;55.512;37.764;2023-03-15T06:13:40;99544.31;;;3.37;59.92
44198;BME280;30157;55.512;37.764;2023-03-15T06:16:14;99596.78;;;3.97;59.07
44198;BME280;30157;55.512;37.764;2023-03-15T06:18:43;99456.00;;;3.26;58.61
44198;BME280;30157;55.512;37.764;2023-03-15T06:21:08;99525.22;;;3.68;58.67
44198;BME280;30157;55.512;37.764;2023-03-15T06:23:35;99517.16;;;3.96;58.05
44198;BME280;30157;55.512;37.764;2023-03-15T06:26:01;99608.41;;;4.78;56.73
44198;BME280;30157;55.512;37.764;2023-03-15T06:28:28;99600.13;;;4.97;56.59
44198;BME280;30157;55.512;37.764;2023-03-15T06:30:57;99419.13;;;3.66;57.03
44198;BME280;30157;55.512;37.764;2023-03-15T06:33:31;99563.47;;;5.14;56.03
44198;BME280;30157;55.512;37.764;2023-03-15T06:35:57;99519.47;;;4.92;55.81
44198;BME280;30157;55.512;37.764;2023-03-15T06:38:23;99589.13;;;5.08;56.26
44198;BME280;30157;55.512;37.764;2023-03-15T06:40:49;99597.88;;;5.20;56.21
44198;BME280;30157;55.512;37.764;2023-03-15T06:43:14;99598.88;;;5.32;56.18
44198;BME280;30157;55.512;37.764;2023-03-15T06:45:45;99581.50;;;5.17;55.86
44198;BME280;30157;55.512;37.764;2023-03-15T06:48:12;99593.66;;;5.27;56.38
44198;BME280;30157;55.512;37.764;2023-03-15T06:50:39;99605.06;;;5.46;55.63
44198;BME280;30157;55.512;37.764;2023-03-15T06:53:05;99533.75;;;5.39;54.58
44198;BME280;30157;55.512;37.764;2023-03-15T06:55:31;99593.38;;;5.76;54.96
44198;BME280;30157;55.512;37.764;2023-03-15T06:57:57;99514.69;;;5.20;55.21
44198;BME280;30157;55.512;37.764;2023-03-15T07:00:23;99599.16;;;5.55;55.79
44198;BME280;30157;55.512;37.764;2023-03-15T07:02:48;99568.03;;;5.35;56.08
44198;BME280;30157;55.512;37.764;2023-03-15T07:05:14;99596.22;;;5.24;56.10
44198;BME280;30157;55.512;37.764;2023-03-15T07:07:40;99586.19;;;5.47;56.04
44198;BME280;30157;55.512;37.764;2023-03-15T07:10:06;99469.63;;;4.84;55.50
44198;BME280;30157;55.512;37.764;2023-03-15T07:12:31;99591.22;;;5.38;56.06
44198;BME280;30157;55.512;37.764;2023-03-15T07:14:57;99616.22;;;5.47;55.94
44198;BME280;30157;55.512;37.764;2023-03-15T07:17:23;99584.19;;;5.25;56.57
44198;BME280;30157;55.512;37.764;2023-03-15T07:19:48;99624.09;;;5.59;56.37
44198;BME280;30157;55.512;37.764;2023-03-15T07:22:16;99593.56;;;5.93;55.31
44198;BME280;30157;55.512;37.764;2023-03-15T07:24:42;99492.91;;;5.71;53.84
44198;BME280;30157;55.512;37.764;2023-03-15T07:27:11;99577.41;;;7.20;51.88
44198;BME280;30157;55.512;37.764;2023-03-15T07:29:37;99518.78;;;6.99;51.03
44198;BME280;30157;55.512;37.764;2023-03-15T07:32:03;99598.97;;;7.30;51.10
44198;BME280;30157;55.512;37.764;2023-03-15T07:34:28;99609.38;;;7.52;50.87
44198;BME280;30157;55.512;37.764;2023-03-15T07:36:54;99603.38;;;7.57;50.30
44198;BME280;30157;55.512;37.764;2023-03-15T07:39:23;99610.22;;;7.43;51.44
44198;BME280;30157;55.512;37.764;2023-03-15T07:41:51;99605.75;;;7.10;51.33
44198;BME280;30157;55.512;37.764;2023-03-15T07:44:29;99624.72;;;7.24;52.12
44198;BME280;30157;55.512;37.764;2023-03-15T07:46:54;99620.00;;;8.83;49.19
44198;BME280;30157;55.512;37.764;2023-03-15T07:49:20;99627.69;;;8.40;48.92
44198;BME280;30157;55.512;37.764;2023-03-15T07:51:46;99630.25;;;8.11;49.38
44198;BME280;30157;55.512;37.764;2023-03-15T07:54:12;99624.16;;;7.87;49.87
44198;BME280;30157;55.512;37.764;2023-03-15T07:56:38;99626.78;;;8.02;50.14
44198;BME280;30157;55.512;37.764;2023-03-15T07:59:03;99640.59;;;8.26;49.85
44198;BME280;30157;55.512;37.764;2023-03-15T08:01:29;99648.31;;;8.06;50.17
44198;BME280;30157;55.512;37.764;2023-03-15T08:03:55;99574.00;;;7.32;51.02
44198;BME280;30157;55.512;37.764;2023-03-15T08:06:20;99655.06;;;7.64;50.95
44198;BME280;30157;55.512;37.764;2023-03-15T08:08:46;99672.25;;;7.60;51.45
44198;BME280;30157;55.512;37.764;2023-03-15T08:11:12;99645.28;;;7.05;52.97
44198;BME280;30157;55.512;37.764;2023-03-15T08:13:37;99657.31;;;7.03;53.19
44198;BME280;30157;55.512;37.764;2023-03-15T08:16:03;99652.75;;;6.70;53.99
44198;BME280;30157;55.512;37.764;2023-03-15T08:18:29;99670.78;;;6.65;54.11
44198;BME280;30157;55.512;37.764;2023-03-15T08:20:55;99648.03;;;6.24;55.13
44198;BME280;30157;55.512;37.764;2023-03-15T08:23:21;99476.19;;;5.31;55.12
44198;BME280;30157;55.512;37.764;2023-03-15T08:25:47;99651.63;;;6.42;55.14
44198;BME280;30157;55.512;37.764;2023-03-15T08:28:14;99568.06;;;6.15;54.55
44198;BME280;30157;55.512;37.764;2023-03-15T08:30:40;99651.22;;;6.95;53.71
44198;BME280;30157;55.512;37.764;2023-03-15T08:33:06;99562.38;;;6.58;53.69
44198;BME280;30157;55.512;37.764;2023-03-15T08:35:32;99616.22;;;7.42;52.73
44198;BME280;30157;55.512;37.764;2023-03-15T08:37:59;99659.47;;;7.94;51.92
44198;BME280;30157;55.512;37.764;2023-03-15T08:40:27;99655.97;;;7.75;51.70
44198;BME280;30157;55.512;37.764;2023-03-15T08:42:54;99639.44;;;7.39;52.41
44198;BME280;30157;55.512;37.764;2023-03-15T08:45:22;99641.94;;;7.25;52.84
44198;BME280;30157;55.512;37.764;2023-03-15T08:47:49;99619.19;;;6.67;54.05
44198;BME280;30157;55.512;37.764;2023-03-15T08:50:15;99597.81;;;6.79;53.78
44198;BME280;30157;55.512;37.764;2023-03-15T08:52:42;99625.28;;;6.78;54.18
44198;BME280;30157;55.512;37.764;2023-03-15T08:55:09;99638.53;;;7.26;53.54
44198;BME280;30157;55.512;37.764;2023-03-15T08:57:39;99653.22;;;7.43;53.35
44198;BME280;30157;55.512;37.764;2023-03-15T09:00:05;99648.13;;;7.49;53.23
44198;BME280;30157;55.512;37.764;2023-03-15T09:02:33;99645.47;;;7.39;53.52
44198;BME280;30157;55.512;37.764;2023-03-15T09:04:58;99642.97;;;7.56;53.00
44198;BME280;30157;55.512;37.764;2023-03-15T09:07:24;99626.69;;;7.71;52.26
44198;BME280;30157;55.512;37.764;2023-03-15T09:09:50;99617.16;;;7.60;52.59
44198;BME280;30157;55.512;37.764;2023-03-15T09:12:19;99613.78;;;7.78;52.25
44198;BME280;30157;55.512;37.764;2023-03-15T09:14:46;99598.34;;;8.01;51.59
44198;BME280;30157;55.512;37.764;2023-03-15T09:17:12;99640.56;;;8.00;51.48
44198;BME280;30157;55.512;37.764;2023-03-15T09:19:37;99625.03;;;7.92;51.98
44198;BME280;30157;55.512;37.764;2023-03-15T09:22:04;99636.28;;;8.06;51.94
44198;BME280;30157;55.512;37.764;2023-03-15T09:24:30;99568.13;;;7.73;51.57
44198;BME280;30157;55.512;37.764;2023-03-15T09:26:56;99557.84;;;7.92;50.84
44198;BME280;30157;55.512;37.764;2023-03-15T09:29:21;99643.22;;;9.27;49.33
44198;BME280;30157;55.512;37.764;2023-03-15T09:31:47;99577.63;;;9.15;48.76
44198;BME280;30157;55.512;37.764;2023-03-15T09:34:13;99602.66;;;9.08;48.90
44198;BME280;30157;55.512;37.764;2023-03-15T09:36:38;99649.31;;;8.85;49.70
44198;BME280;30157;55.512;37.764;2023-03-15T09:39:04;99530.28;;;8.13;49.86
44198;BME280;30157;55.512;37.764;2023-03-15T09:41:40;99597.56;;;8.71;49.75
44198;BME280;30157;55.512;37.764;2023-03-15T09:44:15;99621.69;;;8.89;49.33
44198;BME280;30157;55.512;37.764;2023-03-15T09:46:59;99649.06;;;9.84;47.62
44198;BME280;30157;55.512;37.764;2023-03-15T09:49:32;99631.06;;;9.46;48.39
44198;BME280;30157;55.512;37.764;2023-03-15T09:55:24;99636.38;;;8.57;50.37
44198;BME280;30157;55.512;37.764;2023-03-15T10:03:17;99629.47;;;8.86;50.15
44198;BME280;30157;55.512;37.764;2023-03-15T10:05:48;99537.22;;;8.63;49.62
44198;BME280;30157;55.512;37.764;2023-03-15T10:08:16;99610.19;;;9.83;48.31
44198;BME280;30157;55.512;37.764;2023-03-15T10:10:55;99555.84;;;9.66;47.04
44198;BME280;30157;55.512;37.764;2023-03-15T10:16:45;99619.44;;;10.24;46.63
44198;BME280;30157;55.512;37.764;2023-03-15T10:21:59;99607.38;;;10.24;46.03
44198;BME280;30157;55.512;37.764;2023-03-15T10:28:23;99600.34;;;10.40;46.38
44198;BME280;30157;55.512;37.764;2023-03-15T10:30:50;99596.66;;;10.69;45.67
44198;BME280;30157;55.512;37.764;2023-03-15T10:33:30;99610.38;;;10.82;45.42
44198;BME280;30157;55.512;37.764;2023-03-15T10:35:57;99635.81;;;10.32;46.36
44198;BME280;30157;55.512;37.764;2023-03-15T10:38:24;99620.38;;;10.14;46.78
44198;BME280;30157;55.512;37.764;2023-03-15T10:40:55;99498.78;;;9.72;46.57
44198;BME280;30157;55.512;37.764;2023-03-15T10:43:27;99623.97;;;9.91;47.39
44198;BME280;30157;55.512;37.764;2023-03-15T10:46:12;99537.13;;;9.00;48.05
44198;BME280;30157;55.512;37.764;2023-03-15T10:48:39;99611.28;;;9.28;48.98
44198;BME280;30157;55.512;37.764;2023-03-15T10:51:36;99624.06;;;9.71;48.02
44198;BME280;30157;55.512;37.764;2023-03-15T10:57:02;99582.00;;;9.02;48.81
44198;BME280;30157;55.512;37.764;2023-03-15T10:59:31;99632.81;;;9.40;49.18
44198;BME280;30157;55.512;37.764;2023-03-15T11:04:43;99576.66;;;9.53;48.27
44198;BME280;30157;55.512;37.764;2023-03-15T11:07:11;99567.13;;;9.54;48.02
44198;BME280;30157;55.512;37.764;2023-03-15T11:09:51;99636.97;;;9.85;47.91
44198;BME280;30157;55.512;37.764;2023-03-15T11:12:23;99611.06;;;9.82;47.92
44198;BME280;30157;55.512;37.764;2023-03-15T11:14:52;99532.66;;;9.41;47.67
44198;BME280;30157;55.512;37.764;2023-03-15T11:17:21;99579.16;;;9.69;48.07
44198;BME280;30157;55.512;37.764;2023-03-15T11:19:53;99636.88;;;10.02;47.68
44198;BME280;30157;55.512;37.764;2023-03-15T11:22:20;99635.09;;;10.10;47.47
44198;BME280;30157;55.512;37.764;2023-03-15T11:24:46;99540.28;;;9.70;47.42
44198;BME280;30157;55.512;37.764;2023-03-15T11:27:14;99599.91;;;9.61;48.01
44198;BME280;30157;55.512;37.764;2023-03-15T11:29:49;99632.59;;;9.91;48.11
44198;BME280;30157;55.512;37.764;2023-03-15T11:32:20;99612.81;;;9.75;48.17
44198;BME280;30157;55.512;37.764;2023-03-15T11:35:03;99632.59;;;9.98;48.08
44198;BME280;30157;55.512;37.764;2023-03-15T11:37:52;99624.97;;;9.62;48.25
44198;BME280;30157;55.512;37.764;2023-03-15T11:40:40;99606.94;;;9.36;48.96
44198;BME280;30157;55.512;37.764;2023-03-15T11:43:23;99627.59;;;9.56;49.15
44198;BME280;30157;55.512;37.764;2023-03-15T11:45:54;99540.44;;;9.41;47.90
44198;BME280;30157;55.512;37.764;2023-03-15T11:48:50;99636.00;;;10.01;47.64
44198;BME280;30157;55.512;37.764;2023-03-15T11:51:18;99607.78;;;9.35;48.79
44198;BME280;30157;55.512;37.764;2023-03-15T11:53:47;99621.69;;;8.98;50.02
44198;BME280;30157;55.512;37.764;2023-03-15T11:59:12;99531.94;;;7.58;52.47
44198;BME280;30157;55.512;37.764;2023-03-15T12:01:48;99629.41;;;8.29;52.10
44198;BME280;30157;55.512;37.764;2023-03-15T12:07:03;99631.00;;;7.79;53.57
44198;BME280;30157;55.512;37.764;2023-03-15T12:12:00;99615.63;;;8.19;52.34
44198;BME280;30157;55.512;37.764;2023-03-15T12:22:32;99638.81;;;7.85;53.06
44198;BME280;30157;55.512;37.764;2023-03-15T12:25:07;99634.50;;;7.92;52.99
44198;BME280;30157;55.512;37.764;2023-03-15T12:27:42;99638.81;;;7.91;53.20
44198;BME280;30157;55.512;37.764;2023-03-15T12:30:39;99630.22;;;8.00;53.08
44198;BME280;30157;55.512;37.764;2023-03-15T12:33:13;99526.72;;;7.41;53.16
44198;BME280;30157;55.512;37.764;2023-03-15T12:35:42;99580.94;;;7.44;53.83
44198;BME280;30157;55.512;37.764;2023-03-15T12:38:15;99623.31;;;7.97;53.07
44198;BME280;30157;55.512;37.764;2023-03-15T12:40:55;99636.31;;;8.17;52.99
44198;BME280;30157;55.512;37.764;2023-03-15T12:43:40;99619.94;;;9.10;50.83
44198;BME280;30157;55.512;37.764;2023-03-15T12:52:00;99628.03;;;10.32;46.97
44198;BME280;30157;55.512;37.764;2023-03-15T12:54:40;99632.34;;;10.41;46.30
44198;BME280;30157;55.512;37.764;2023-03-15T12:57:11;99631.63;;;10.16;47.20
44198;BME280;30157;55.512;37.764;2023-03-15T13:00:06;99652.66;;;8.15;51.27
44198;BME280;30157;55.512;37.764;2023-03-15T13:02:44;99556.16;;;8.06;51.48
44198;BME280;30157;55.512;37.764;2023-03-15T13:05:23;99631.91;;;11.74;44.49
44198;BME280;30157;55.512;37.764;2023-03-15T13:08:07;99624.31;;;12.81;40.83
44198;BME280;30157;55.512;37.764;2023-03-15T13:16:48;99624.84;;;13.90;38.56
44198;BME280;30157;55.512;37.764;2023-03-15T13:24:37;99617.59;;;13.64;38.26
44198;BME280;30157;55.512;37.764;2023-03-15T13:35:40;99596.03;;;12.59;39.53
44198;BME280;30157;55.512;37.764;2023-03-15T13:40:45;99416.16;;;11.14;39.83
44198;BME280;30157;55.512;37.764;2023-03-15T13:43:11;99647.91;;;12.12;40.78
44198;BME280;30157;55.512;37.764;2023-03-15T13:45:41;99631.72;;;11.15;42.43
44198;BME280;30157;55.512;37.764;2023-03-15T13:48:07;99618.13;;;10.87;43.20
44198;BME280;30157;55.512;37.764;2023-03-15T13:50:34;99623.38;;;10.81;43.16
44198;BME280;30157;55.512;37.764;2023-03-15T13:53:01;99608.72;;;9.06;47.01
44198;BME280;30157;55.512;37.764;2023-03-15T13:55:31;99623.44;;;8.74;48.18
44198;BME280;30157;55.512;37.764;2023-03-15T13:57:59;99579.44;;;8.65;48.02
44198;BME280;30157;55.512;37.764;2023-03-15T14:00:30;99626.88;;;8.69;48.22
44198;BME280;30157;55.512;37.764;2023-03-15T14:03:01;99526.00;;;8.50;47.77
44198;BME280;30157;55.512;37.764;2023-03-15T14:05:30;99593.09;;;9.43;46.33
44198;BME280;30157;55.512;37.764;2023-03-15T14:08:05;99616.22;;;9.85;45.68
44198;BME280;30157;55.512;37.764;2023-03-15T14:10:36;99572.25;;;9.65;45.35
44198;BME280;30157;55.512;37.764;2023-03-15T14:15:58;99530.63;;;6.63;52.00
44198;BME280;30157;55.512;37.764;2023-03-15T14:18:30;99625.22;;;6.67;53.69
44198;BME280;30157;55.512;37.764;2023-03-15T14:23:29;99639.44;;;6.24;55.52
44198;BME280;30157;55.512;37.764;2023-03-15T14:26:26;99552.84;;;5.57;55.67
44198;BME280;30157;55.512;37.764;2023-03-15T14:28:55;99613.38;;;5.97;55.75
44198;BME280;30157;55.512;37.764;2023-03-15T14:31:26;99524.16;;;5.24;56.39
44198;BME280;30157;55.512;37.764;2023-03-15T14:33:56;99618.38;;;5.85;56.51
44198;BME280;30157;55.512;37.764;2023-03-15T14:36:38;99599.28;;;5.66;56.34
44198;BME280;30157;55.512;37.764;2023-03-15T14:39:23;99645.50;;;5.53;57.28
44198;BME280;30157;55.512;37.764;2023-03-15T14:41:49;99616.84;;;5.30;57.45
44198;BME280;30157;55.512;37.764;2023-03-15T14:44:14;99541.81;;;4.96;57.41